Northfield, New Hampshire
Current Conditions -  °F | °C
As of 3:35 AM on Wednesday 26 Nov 2014 (Local Time) from KLCI Reporting Station
Clear Clear  
Wind Chill: 36°   Ceiling: Unl
Heat Index: 41°   Visibility: 10mi
Dew Point: 27°   Wind: 8mph
Humidity: 57%   Direction: 250°WSW
Pressure: 30.14"   Gusts: NA
Location:  43.4812°N, 71.5745°W
Report Text: KLCI 260835Z AUTO 25007KT 10SM CLR 05/M03 A3014 RMK AO1
Loading
Personal Weather Stations






























Interactive Weather Map New forecast layout! Learn more

10-Day Weather Forecast

Advertisements
Track Severe Weather on mobile